Time;durP1;ratioP1;P1;durP2;ratioP2;P2;SDS_P1;SDS_P2;PMS_P1;PMS_P2;Temp;Humidity;BMP_temperature;BMP_pressure;BME280_temperature;BME280_humidity;BME280_pressure;Samples;Min_cycle;Max_cycle;Signal;HPM_P1;HPM_P2
2020/12/11 00:02:04;;;;;;;23.53;13.07;;;;;;;2.60;88.78;97791.66;4935705;29;20126;-62
2020/12/11 00:04:30;;;;;;;22.83;13.33;;;;;;;2.59;88.66;97795.03;4927526;29;20046;-62
2020/12/11 00:06:57;;;;;;;25.37;12.70;;;;;;;2.60;89.22;97796.72;4936043;29;20031;-62
2020/12/11 00:09:23;;;;;;;25.90;13.33;;;;;;;2.60;89.18;97788.28;4936021;29;20111;-62
2020/12/11 00:11:48;;;;;;;30.93;16.13;;;;;;;2.59;88.51;97789.16;4939992;29;20139;-62
2020/12/11 00:14:14;;;;;;;32.93;15.57;;;;;;;2.57;89.44;97793.34;4954042;29;20500;-61
2020/12/11 00:16:39;;;;;;;38.47;18.73;;;;;;;2.62;88.90;97789.13;4955075;29;20063;-62
2020/12/11 00:19:05;;;;;;;37.27;17.73;;;;;;;2.64;89.14;97790.81;4953846;29;20055;-61
2020/12/11 00:21:41;;;;;;;33.90;18.03;;;;;;;2.63;89.33;97804.28;4915769;29;20398;-61
2020/12/11 00:24:07;;;;;;;37.83;17.60;;;;;;;2.58;89.32;97800.94;4902814;29;20096;-61
2020/12/11 00:26:32;;;;;;;38.73;17.50;;;;;;;2.53;89.03;97795.06;4915662;29;20115;-61
2020/12/11 00:28:58;;;;;;;34.27;17.20;;;;;;;2.51;89.51;97795.88;4916026;29;20122;-62
2020/12/11 00:31:24;;;;;;;40.80;20.10;;;;;;;2.52;89.78;97795.88;4917372;29;20040;-61
2020/12/11 00:33:51;;;;;;;41.17;19.97;;;;;;;2.56;89.34;97796.72;4929974;29;20427;-61
2020/12/11 00:36:16;;;;;;;41.73;19.17;;;;;;;2.56;89.34;97804.31;4917071;29;20036;-61
2020/12/11 00:38:41;;;;;;;42.80;18.67;;;;;;;2.53;89.54;97805.16;4916353;29;20032;-61
2020/12/11 00:41:07;;;;;;;40.00;17.97;;;;;;;2.61;89.40;97798.41;4920499;29;20040;-62
2020/12/11 00:43:33;;;;;;;43.50;18.17;;;;;;;2.59;89.89;97797.56;4919536;29;20109;-61
2020/12/11 00:45:59;;;;;;;40.83;17.40;;;;;;;2.55;89.80;97797.56;4919986;29;20128;-61
2020/12/11 00:48:24;;;;;;;40.17;19.13;;;;;;;2.58;nan;97792.53;4919531;29;20084;-61
2020/12/11 00:50:50;;;;;;;45.80;19.20;;;;;;;2.50;89.37;97794.22;4940220;29;20063;-61
2020/12/11 00:53:15;;;;;;;44.13;19.87;;;;;;;2.50;89.40;97799.28;4938356;29;20060;-61
2020/12/11 00:55:40;;;;;;;46.90;19.33;;;;;;;2.43;89.46;97798.41;4952744;29;20114;-61
2020/12/11 00:58:06;;;;;;;52.70;18.73;;;;;;;2.43;89.86;97803.47;4958010;29;20055;-62
2020/12/11 01:00:31;;;;;;;47.63;20.50;;;;;;;2.45;90.01;97800.97;4956678;29;20019;-61
2020/12/11 01:02:56;;;;;;;70.17;21.20;;;;;;;2.28;89.68;97806.88;4957783;29;20524;-62
2020/12/11 01:05:22;;;;;;;44.50;19.63;;;;;;;2.37;90.27;97817.81;4943639;29;20071;-62
2020/12/11 01:07:47;;;;;;;45.07;19.87;;;;;;;2.43;90.60;97806.00;4935122;29;20028;-61
2020/12/11 01:10:12;;;;;;;53.33;19.50;;;;;;;2.42;89.86;97811.09;4923496;29;20327;-61
2020/12/11 01:12:38;;;;;;;56.00;20.67;;;;;;;2.45;90.68;97816.13;4914881;29;710094;-61
2020/12/11 01:15:04;;;;;;;51.13;20.13;;;;;;;2.45;90.69;97811.06;4940498;29;20427;-61
2020/12/11 01:17:29;;;;;;;41.03;19.30;;;;;;;2.43;90.79;97808.53;4959590;29;20117;-62
2020/12/11 01:19:55;;;;;;;80.63;23.67;;;;;;;2.38;90.95;97815.28;4951903;29;20345;-62
2020/12/11 01:22:20;;;;;;;56.03;20.67;;;;;;;2.40;91.25;97812.75;4959399;29;20472;-62
2020/12/11 01:24:45;;;;;;;48.87;20.27;;;;;;;2.39;90.77;97808.53;4958080;29;20460;-62
2020/12/11 01:27:11;;;;;;;87.27;22.63;;;;;;;2.41;90.62;97810.25;4922902;29;20090;-62
2020/12/11 01:29:37;;;;;;;47.10;19.10;;;;;;;2.45;90.53;97811.06;4920449;29;20038;-62
2020/12/11 01:32:02;;;;;;;42.13;18.80;;;;;;;2.45;90.70;97811.06;4920603;29;20349;-62
2020/12/11 01:34:28;;;;;;;70.63;20.90;;;;;;;2.35;90.42;97807.69;4920051;29;20039;-62
2020/12/11 01:36:53;;;;;;;51.63;20.40;;;;;;;2.39;90.95;97806.84;4945865;29;20410;-62
2020/12/11 01:39:18;;;;;;;108.93;22.07;;;;;;;2.26;90.87;97806.00;4957996;29;20106;-62
2020/12/11 01:41:44;;;;;;;107.57;23.50;;;;;;;2.27;91.21;97805.16;4957484;29;20496;-62
2020/12/11 01:44:12;;;;;;;51.23;20.27;;;;;;;2.35;91.22;97801.78;4958386;29;20050;-62
2020/12/11 01:46:40;;;;;;;57.63;22.13;;;;;;;2.39;91.78;97803.47;4956540;29;20096;-63
2020/12/11 01:49:10;;;;;;;48.40;19.50;;;;;;;2.43;91.06;97803.47;4958467;29;20042;-62
2020/12/11 01:51:36;;;;;;;55.53;21.90;;;;;;;2.44;91.41;97801.78;4946531;29;20027;-62
2020/12/11 01:54:02;;;;;;;37.17;18.07;;;;;;;2.47;91.39;97795.03;4958329;29;20054;-62
2020/12/11 01:56:31;;;;;;;52.87;20.70;;;;;;;2.53;91.53;97804.31;4942754;29;20092;-63
2020/12/11 01:59:07;;;;;;;51.70;19.07;;;;;;;2.53;90.88;97796.72;4920030;29;20024;-62
2020/12/11 02:01:36;;;;;;;53.90;19.13;;;;;;;2.56;91.17;97792.50;4933290;29;20105;-61
2020/12/11 02:04:04;;;;;;;52.37;19.00;;;;;;;2.57;91.22;97786.63;4958200;29;20082;-62
2020/12/11 02:06:30;;;;;;;43.67;19.57;;;;;;;2.59;91.03;97784.09;4957189;29;20035;-62
2020/12/11 02:08:56;;;;;;;36.33;17.50;;;;;;;2.56;91.13;97789.13;4958313;29;20354;-62
2020/12/11 02:11:24;;;;;;;45.57;20.13;;;;;;;2.53;91.35;97795.06;4952403;29;20023;-61
2020/12/11 02:13:50;;;;;;;35.73;18.27;;;;;;;2.52;91.33;97785.75;4938968;29;20416;-61
2020/12/11 02:16:22;;;;;;;42.70;18.20;;;;;;;2.53;90.87;97787.47;4939953;29;20032;-62
2020/12/11 02:18:48;;;;;;;64.33;21.43;;;;;;;2.48;91.54;97781.56;4958269;29;20023;-62
2020/12/11 02:21:14;;;;;;;73.07;23.67;;;;;;;2.47;91.29;97782.38;4938396;29;20038;-63
2020/12/11 02:23:42;;;;;;;39.33;18.57;;;;;;;2.52;91.49;97769.75;4918961;29;20424;-61
2020/12/11 02:26:08;;;;;;;52.33;20.23;;;;;;;2.52;91.52;97772.28;4918713;29;20036;-62
2020/12/11 02:28:34;;;;;;;53.63;19.83;;;;;;;2.53;91.22;97772.28;4938276;29;20131;-62
2020/12/11 02:31:00;;;;;;;44.53;19.27;;;;;;;2.53;91.45;97771.44;4938138;29;20024;-62
2020/12/11 02:33:26;;;;;;;39.33;19.20;;;;;;;2.55;91.48;97763.00;4920726;29;20457;-62
2020/12/11 02:35:51;;;;;;;66.07;20.47;;;;;;;2.49;90.99;97757.94;4918228;29;20406;-61
2020/12/11 02:38:17;;;;;;;40.90;20.20;;;;;;;2.50;90.97;97756.28;4925056;29;20032;-63
2020/12/11 02:40:50;;;;;;;59.73;19.90;;;;;;;2.57;90.78;97763.84;4923938;29;20019;-63
2020/12/11 02:43:17;;;;;;;57.43;19.70;;;;;;;2.50;90.78;97758.81;4933326;29;20029;-63
2020/12/11 02:45:45;;;;;;;52.97;21.40;;;;;;;2.52;91.43;97762.16;4937812;29;20039;-62
2020/12/11 02:48:11;;;;;;;44.20;19.27;;;;;;;2.44;91.53;97759.63;4937852;29;20026;-63
2020/12/11 02:50:37;;;;;;;47.00;18.33;;;;;;;2.46;90.68;97757.13;4937455;29;20027;-63
2020/12/11 02:53:02;;;;;;;39.93;17.53;;;;;;;2.45;91.28;97751.22;4929597;29;20102;-63
2020/12/11 02:55:28;;;;;;;46.17;18.10;;;;;;;2.41;90.89;97752.06;4937669;29;20035;-63
2020/12/11 02:57:53;;;;;;;36.80;17.77;;;;;;;2.46;91.29;97747.81;4935727;29;20154;-63
2020/12/11 03:00:18;;;;;;;46.20;18.63;;;;;;;2.48;91.14;97747.81;4928049;29;20024;-62
2020/12/11 03:02:44;;;;;;;38.97;17.27;;;;;;;2.49;90.79;97740.25;4927120;29;20035;-62
2020/12/11 03:05:09;;;;;;;40.13;18.27;;;;;;;2.48;90.75;97741.09;4927006;29;20028;-63
2020/12/11 03:07:35;;;;;;;37.70;17.60;;;;;;;2.47;91.16;97736.88;4931492;29;20043;-62
2020/12/11 03:10:00;;;;;;;40.03;16.53;;;;;;;2.48;91.43;97736.03;4932974;29;20031;-63
2020/12/11 03:12:25;;;;;;;38.10;16.17;;;;;;;2.52;91.29;97742.75;4929137;29;20079;-62
2020/12/11 03:14:51;;;;;;;32.53;16.80;;;;;;;2.53;91.24;97736.03;4923148;29;20027;-62
2020/12/11 03:17:16;;;;;;;33.83;16.53;;;;;;;2.51;90.92;97736.00;4924561;29;20088;-61
2020/12/11 03:19:41;;;;;;;32.80;14.80;;;;;;;2.48;90.67;97725.06;4935486;29;20034;-63
2020/12/11 03:22:07;;;;;;;40.03;15.50;;;;;;;2.52;91.06;97730.13;4939819;29;20107;-63
2020/12/11 03:24:32;;;;;;;32.17;16.43;;;;;;;2.54;91.16;97730.13;4931032;29;20111;-63
2020/12/11 03:26:58;;;;;;;30.60;15.00;;;;;;;2.52;91.15;97725.06;4928980;29;20031;-63
2020/12/11 03:29:23;;;;;;;28.60;14.40;;;;;;;2.57;90.66;97730.09;4927500;29;20027;-63
2020/12/11 03:31:48;;;;;;;32.77;15.97;;;;;;;2.56;90.50;97729.25;4926070;29;20107;-63
2020/12/11 03:34:14;;;;;;;33.60;16.00;;;;;;;2.59;90.66;97724.19;4920457;29;20032;-62
2020/12/11 03:36:39;;;;;;;30.03;15.33;;;;;;;2.53;90.33;97728.44;4928660;29;20472;-61
2020/12/11 03:39:05;;;;;;;33.07;16.03;;;;;;;2.57;90.07;97736.00;4924843;29;20024;-62
2020/12/11 03:41:30;;;;;;;33.60;16.50;;;;;;;2.59;89.97;97736.03;4919265;29;20099;-62
2020/12/11 03:43:55;;;;;;;36.07;17.77;;;;;;;2.63;90.02;97727.56;4923524;29;20510;-61
2020/12/11 03:46:21;;;;;;;28.93;15.40;;;;;;;2.62;90.02;97730.94;4920614;29;20020;-61
2020/12/11 03:48:51;;;;;;;34.73;16.43;;;;;;;2.66;90.05;97732.63;4919972;29;20441;-62
2020/12/11 03:51:21;;;;;;;29.60;15.97;;;;;;;2.60;90.37;97736.00;4920839;29;20032;-62
2020/12/11 03:53:47;;;;;;;33.87;15.80;;;;;;;2.59;90.31;97733.50;4918861;29;20012;-61
2020/12/11 03:56:17;;;;;;;31.57;16.43;;;;;;;2.57;90.42;97728.44;4921394;29;20523;-60
2020/12/11 03:58:43;;;;;;;35.33;16.33;;;;;;;2.64;90.51;97726.72;4918210;29;20024;-61
2020/12/11 04:01:10;;;;;;;32.80;16.30;;;;;;;2.66;90.19;97730.09;4901845;29;20334;-61
2020/12/11 04:03:36;;;;;;;40.27;18.03;;;;;;;2.62;90.50;97729.25;4919667;29;20040;-61
2020/12/11 04:06:06;;;;;;;32.93;17.63;;;;;;;2.71;90.44;97728.41;4921696;29;20449;-61
2020/12/11 04:08:31;;;;;;;36.60;18.70;;;;;;;2.64;90.22;97726.72;4918790;29;20063;-61
2020/12/11 04:10:57;;;;;;;40.13;16.93;;;;;;;2.63;90.60;97725.84;4919135;29;20024;-61
2020/12/11 04:13:22;;;;;;;48.40;20.27;;;;;;;2.65;90.66;97729.25;4917378;29;20055;-61
2020/12/11 04:15:48;;;;;;;47.77;19.80;;;;;;;2.66;90.21;97725.03;4918201;29;20035;-63
2020/12/11 04:18:13;;;;;;;43.13;18.33;;;;;;;2.64;90.86;97721.66;4921493;29;20213;-61
2020/12/11 04:20:39;;;;;;;70.37;36.10;;;;;;;2.66;91.00;97717.44;4920941;29;20027;-62
2020/12/11 04:23:04;;;;;;;50.67;23.07;;;;;;;2.67;90.62;97712.34;4918667;29;20032;-62
2020/12/11 04:25:29;;;;;;;38.60;19.53;;;;;;;2.68;90.99;97721.63;4917230;29;20115;-62
2020/12/11 04:27:55;;;;;;;37.83;18.30;;;;;;;2.65;90.66;97721.66;4916076;29;20160;-63
2020/12/11 04:30:20;;;;;;;43.17;19.83;;;;;;;2.70;91.10;97722.50;4916675;29;20095;-63
2020/12/11 04:32:45;;;;;;;44.77;19.43;;;;;;;2.72;90.61;97723.31;4919054;29;20028;-63
2020/12/11 04:35:11;;;;;;;42.07;17.87;;;;;;;2.75;90.79;97718.25;4916050;29;20028;-63
2020/12/11 04:37:36;;;;;;;41.97;19.53;;;;;;;2.72;91.01;97720.78;4914857;29;20032;-62
2020/12/11 04:40:02;;;;;;;41.80;20.67;;;;;;;2.76;90.67;97714.03;4918438;29;20072;-63
2020/12/11 04:42:34;;;;;;;44.80;22.00;;;;;;;2.73;90.48;97719.94;4914968;29;20511;-62
2020/12/11 04:45:00;;;;;;;41.47;21.27;;;;;;;2.74;90.48;97723.31;4915743;29;20035;-62
2020/12/11 04:47:26;;;;;;;50.27;23.57;;;;;;;2.76;90.74;97724.13;4900166;29;20128;-62
2020/12/11 04:49:52;;;;;;;45.47;21.27;;;;;;;2.72;90.99;97725.84;4923322;29;20084;-63
2020/12/11 04:52:20;;;;;;;54.00;22.27;;;;;;;2.74;90.80;97728.38;4935919;29;20028;-63
2020/12/11 04:54:49;;;;;;;53.40;21.77;;;;;;;2.79;90.71;97724.16;4917407;29;20415;-63
2020/12/11 04:57:22;;;;;;;45.57;21.50;;;;;;;2.81;91.00;97717.38;4916703;29;20349;-63
2020/12/11 04:59:50;;;;;;;44.27;21.77;;;;;;;2.83;90.96;97720.75;4917482;29;20023;-62
2020/12/11 05:02:17;;;;;;;42.20;21.37;;;;;;;2.76;90.73;97712.34;4916715;29;20067;-62
2020/12/11 05:04:42;;;;;;;46.67;22.10;;;;;;;2.80;90.60;97713.16;4917405;29;20446;-62
2020/12/11 05:07:08;;;;;;;43.47;20.77;;;;;;;2.79;90.36;97710.66;4930875;29;20202;-63
2020/12/11 05:09:33;;;;;;;39.37;21.77;;;;;;;2.79;90.16;97711.50;4924468;29;20039;-63
2020/12/11 05:11:58;;;;;;;45.03;21.87;;;;;;;2.73;90.26;97707.28;4915370;29;20051;-62
2020/12/11 05:14:27;;;;;;;40.80;20.30;;;;;;;2.85;90.26;97706.41;4916398;29;20454;-62
2020/12/11 05:16:56;;;;;;;37.17;18.70;;;;;;;2.84;90.12;97704.75;4916942;29;20024;-60
2020/12/11 05:19:22;;;;;;;38.57;20.63;;;;;;;2.85;90.62;97706.41;4919403;29;20485;-60
2020/12/11 05:21:47;;;;;;;33.37;18.70;;;;;;;2.81;90.36;97696.28;4947301;29;20027;-60
2020/12/11 05:24:12;;;;;;;31.93;17.83;;;;;;;2.79;89.68;97695.47;4955661;29;20031;-61
2020/12/11 05:26:38;;;;;;;30.13;17.67;;;;;;;2.76;89.75;97696.31;4955788;28;20038;-59
2020/12/11 05:29:04;;;;;;;33.70;18.73;;;;;;;2.79;90.36;97692.94;4959080;29;20057;-61
2020/12/11 05:31:30;;;;;;;31.00;17.20;;;;;;;2.78;89.79;97696.31;4957340;29;20034;-59
2020/12/11 05:34:10;;;;;;;29.97;17.03;;;;;;;2.82;89.84;97693.75;4942454;29;20077;-62
2020/12/11 05:36:47;;;;;;;28.70;17.57;;;;;;;2.87;90.00;97698.81;4956787;29;20412;-60
2020/12/11 05:39:16;;;;;;;30.23;17.07;;;;;;;2.81;89.74;97701.34;4959290;29;20035;-61
2020/12/11 05:41:42;;;;;;;29.93;17.17;;;;;;;2.74;89.33;97703.91;4939770;29;20031;-60
2020/12/11 05:44:26;;;;;;;30.70;18.30;;;;;;;2.83;88.98;97707.25;4918658;29;20468;-59
2020/12/11 05:46:52;;;;;;;28.70;15.00;;;;;;;2.78;88.82;97716.56;4927075;29;20083;-60
2020/12/11 05:49:28;;;;;;;28.10;18.37;;;;;;;2.83;89.10;97703.06;4935050;29;20118;-59
2020/12/11 05:52:09;;;;;;;29.00;17.50;;;;;;;2.83;88.63;97705.59;4934225;29;20047;-60
2020/12/11 05:54:40;;;;;;;26.23;16.40;;;;;;;2.78;88.50;97708.97;4936709;29;20454;-60
2020/12/11 05:57:07;;;;;;;24.60;16.17;;;;;;;2.80;88.88;97709.81;4922455;29;20036;-61
2020/12/11 05:59:34;;;;;;;32.90;18.83;;;;;;;2.68;88.24;97714.03;4925309;29;20075;-61
2020/12/11 06:02:00;;;;;;;28.50;16.67;;;;;;;2.69;88.05;97709.84;4929410;29;20358;-62
2020/12/11 06:04:26;;;;;;;27.57;17.50;;;;;;;2.68;87.77;97711.50;4920182;29;20031;-60
2020/12/11 06:06:56;;;;;;;28.63;16.97;;;;;;;2.73;88.30;97708.97;4928610;29;20115;-59
2020/12/11 06:09:27;;;;;;;32.53;18.73;;;;;;;2.56;88.23;97705.66;4925642;29;20036;-59
2020/12/11 06:11:58;;;;;;;31.20;18.43;;;;;;;2.58;88.14;97702.28;4927965;29;20066;-59
2020/12/11 06:14:36;;;;;;;28.90;18.10;;;;;;;2.64;88.33;97703.94;4923860;29;20043;-59
2020/12/11 06:17:04;;;;;;;33.93;19.27;;;;;;;2.66;88.19;97705.63;4935680;29;20042;-59
2020/12/11 06:19:30;;;;;;;33.13;20.20;;;;;;;2.66;88.14;97700.56;4931419;29;20036;-60
2020/12/11 06:21:57;;;;;;;35.10;20.50;;;;;;;2.68;88.00;97693.81;4921356;29;20036;-59
2020/12/11 06:24:27;;;;;;;30.80;18.70;;;;;;;2.67;88.19;97697.19;4919710;29;20028;-60
2020/12/11 06:26:57;;;;;;;31.43;18.80;;;;;;;2.70;88.63;97702.25;4925792;29;20037;-61
2020/12/11 06:29:27;;;;;;;30.90;18.87;;;;;;;2.66;88.31;97702.25;4958022;29;20027;-60
2020/12/11 06:31:53;;;;;;;35.00;19.73;;;;;;;2.49;88.20;97698.94;4933195;29;20034;-61
2020/12/11 06:34:24;;;;;;;29.67;18.70;;;;;;;2.71;88.43;97698.88;4919558;29;20504;-61
2020/12/11 06:36:50;;;;;;;30.00;17.43;;;;;;;2.66;88.11;97700.56;4918640;29;20073;-60
2020/12/11 06:39:39;;;;;;;31.33;19.53;;;;;;;2.69;88.36;97699.72;4948789;29;20031;-62
2020/12/11 06:42:06;;;;;;;29.77;19.00;;;;;;;2.61;87.99;97699.75;4956989;29;20027;-63
2020/12/11 06:44:32;;;;;;;31.50;17.13;;;;;;;2.67;88.45;97709.00;4953609;29;20036;-62
2020/12/11 06:47:08;;;;;;;32.73;19.47;;;;;;;2.70;88.07;97712.38;4956503;29;20027;-62
2020/12/11 06:49:33;;;;;;;34.00;20.07;;;;;;;2.60;88.83;97715.75;4937307;29;20069;-62
2020/12/11 06:52:02;;;;;;;34.97;19.53;;;;;;;2.73;88.45;97706.44;4938530;29;20106;-62
2020/12/11 06:54:27;;;;;;;32.20;18.23;;;;;;;2.70;88.87;97709.00;4928911;29;20032;-61
2020/12/11 06:56:55;;;;;;;32.20;18.73;;;;;;;2.70;88.41;97706.47;4933877;29;20087;-61
2020/12/11 06:59:36;;;;;;;33.23;19.10;;;;;;;2.81;88.64;97708.94;4926214;29;20036;-61
2020/12/11 07:02:02;;;;;;;31.97;18.97;;;;;;;2.62;88.22;97700.59;4927937;29;20131;-63
2020/12/11 07:04:38;;;;;;;30.17;18.53;;;;;;;2.72;88.72;97713.19;4918933;29;20070;-62
2020/12/11 07:07:03;;;;;;;29.60;18.30;;;;;;;2.68;88.59;97709.00;4924133;29;20028;-62
2020/12/11 07:09:29;;;;;;;31.93;19.00;;;;;;;2.73;88.42;97711.50;4933916;29;20397;-61
2020/12/11 07:11:56;;;;;;;33.60;18.20;;;;;;;2.82;88.44;97714.00;4928388;29;20047;-61
2020/12/11 07:14:28;;;;;;;29.63;18.10;;;;;;;2.74;88.73;97713.19;4926512;29;20091;-61
2020/12/11 07:16:53;;;;;;;28.43;17.77;;;;;;;2.82;89.06;97705.56;4922157;29;20059;-61
2020/12/11 07:19:19;;;;;;;35.03;19.57;;;;;;;2.90;88.16;97701.31;4924407;29;20055;-62
2020/12/11 07:21:46;;;;;;;26.63;16.60;;;;;;;2.97;88.38;97700.47;4930323;29;20036;-62
2020/12/11 07:24:13;;;;;;;27.73;16.67;;;;;;;2.99;87.93;97702.13;4920622;29;20035;-61
2020/12/11 07:26:39;;;;;;;28.07;16.33;;;;;;;3.07;87.83;97702.94;4919074;29;20028;-61
2020/12/11 07:29:10;;;;;;;27.63;17.27;;;;;;;3.22;86.62;97695.25;4930777;29;20360;-62
2020/12/11 07:31:39;;;;;;;26.50;16.37;;;;;;;3.20;86.86;97699.50;4929721;29;20073;-62
2020/12/11 07:34:35;;;;;;;22.83;15.37;;;;;;;3.11;86.90;97688.56;4923334;29;20051;-62
2020/12/11 07:37:01;;;;;;;;;;;;;;;3.28;86.54;97691.88;4929759;29;20044;-62
2020/12/11 07:39:27;;;;;;;;;;;;;;;3.35;85.77;97688.47;4922603;29;19922;-61
2020/12/11 07:41:53;;;;;;;22.85;14.05;;;;;;;3.08;86.27;97678.47;4922832;29;19974;-62
2020/12/11 07:44:33;;;;;;;22.43;15.17;;;;;;;3.00;87.46;97682.72;4919719;29;20036;-62
2020/12/11 07:47:01;;;;;;;22.80;14.90;;;;;;;3.12;86.43;97675.91;4930771;29;20016;-62
2020/12/11 07:49:52;;;;;;;23.30;14.83;;;;;;;3.04;86.74;97679.34;4920754;29;20191;-62
2020/12/11 07:52:28;;;;;;;23.80;15.47;;;;;;;3.17;86.97;97683.50;4923689;29;20087;-61
2020/12/11 07:54:53;;;;;;;22.52;14.90;;;;;;;3.14;86.53;97681.81;4924535;29;20024;-62
2020/12/11 07:57:22;;;;;;;21.40;15.27;;;;;;;3.23;86.37;97678.38;4925590;29;20080;-62
2020/12/11 08:00:08;;;;;;;21.33;14.20;;;;;;;3.10;86.56;97679.28;4921665;29;20032;-62
2020/12/11 08:02:34;;;;;;;;;;;;;;;3.31;86.09;97673.28;4930594;29;20032;-61
2020/12/11 08:05:04;;;;;;;20.57;13.63;;;;;;;3.50;85.46;97675.69;4920503;29;19986;-61
2020/12/11 08:07:31;;;;;;;22.50;14.13;;;;;;;3.68;84.80;97665.44;4923533;29;20024;-62
2020/12/11 08:10:10;;;;;;;21.43;13.27;;;;;;;3.90;83.74;97665.28;4918684;29;20473;-61
2020/12/11 08:12:36;;;;;;;18.63;12.80;;;;;;;3.76;83.17;97651.84;4930085;29;20413;-61
2020/12/11 08:15:04;;;;;;;18.90;11.90;;;;;;;3.85;83.94;97654.31;4929475;29;20455;-61
2020/12/11 08:17:33;;;;;;;18.60;13.80;;;;;;;3.69;83.26;97656.97;4926303;29;20028;-61
2020/12/11 08:20:07;;;;;;;21.27;12.67;;;;;;;3.81;83.57;97650.13;4927770;29;20020;-61
2020/12/11 08:22:33;;;;;;;21.17;12.47;;;;;;;3.58;83.80;97656.22;4924684;29;20035;-61
2020/12/11 08:25:00;;;;;;;19.33;12.13;;;;;;;3.80;83.14;97653.50;4919944;29;20039;-61
2020/12/11 08:27:28;;;;;;;18.23;12.97;;;;;;;3.87;82.38;97648.38;4921440;29;20028;-62
2020/12/11 08:30:17;;;;;;;15.23;10.73;;;;;;;3.75;82.57;97637.50;4906252;29;20028;-62
2020/12/11 08:32:45;;;;;;;15.57;9.70;;;;;;;3.82;83.11;97634.06;4921534;29;20027;-62
2020/12/11 08:35:17;;;;;;;14.03;9.73;;;;;;;3.93;82.51;97633.13;4935812;29;20035;-62
2020/12/11 08:37:56;;;;;;;13.67;8.87;;;;;;;4.14;81.58;97635.47;4953304;29;20106;-62
2020/12/11 08:40:23;;;;;;;15.60;9.80;;;;;;;4.29;81.19;97626.84;4955594;29;20023;-62
2020/12/11 08:43:10;;;;;;;17.50;10.73;;;;;;;4.45;80.71;97618.22;4954812;29;20341;-62
2020/12/11 08:45:49;;;;;;;17.43;10.53;;;;;;;4.46;80.83;97619.88;4955256;29;20031;-62
2020/12/11 08:51:01;;;;;;;14.63;10.03;;;;;;;4.56;80.06;97623.16;4931717;29;20114;-62
2020/12/11 08:53:28;;;;;;;14.00;10.20;;;;;;;4.39;80.73;97625.88;4917478;29;20020;-61
2020/12/11 08:55:54;;;;;;;15.23;9.73;;;;;;;4.41;80.93;97628.44;4917083;29;20036;-61
2020/12/11 08:58:19;;;;;;;14.50;10.40;;;;;;;4.46;80.46;97617.34;4917971;29;20034;-62
2020/12/11 09:00:45;;;;;;;14.83;10.07;;;;;;;4.51;79.90;97618.13;4922327;29;20032;-61
2020/12/11 09:03:10;;;;;;;15.23;9.30;;;;;;;4.63;79.49;97606.16;4921416;29;20035;-62
2020/12/11 09:05:36;;;;;;;14.73;9.47;;;;;;;4.53;79.70;97607.97;4920032;29;20048;-61
2020/12/11 09:08:01;;;;;;;13.27;8.90;;;;;;;4.31;80.23;97602.31;4940413;29;20424;-62
2020/12/11 09:10:27;;;;;;;14.03;9.03;;;;;;;4.19;81.03;97599.91;4921632;29;20024;-62
2020/12/11 09:12:53;;;;;;;15.03;10.00;;;;;;;4.39;80.58;97594.59;4920832;29;20044;-62
2020/12/11 09:15:20;;;;;;;16.67;9.23;;;;;;;4.42;80.45;97592.88;4941052;29;20465;-62
2020/12/11 09:17:46;;;;;;;14.30;10.30;;;;;;;4.50;79.99;97588.53;4958196;29;20355;-62
2020/12/11 09:20:12;;;;;;;12.70;9.37;;;;;;;4.46;80.50;97594.50;4949882;29;20031;-62
2020/12/11 09:22:37;;;;;;;13.47;9.00;;;;;;;4.34;80.84;97584.50;4941109;29;20330;-62
2020/12/11 09:25:04;;;;;;;13.60;9.60;;;;;;;4.68;80.54;97584.09;4960248;29;20170;-62
2020/12/11 09:27:29;;;;;;;11.57;8.67;;;;;;;4.94;79.38;97570.22;4958140;29;20069;-62
2020/12/11 09:30:03;;;;;;;16.27;9.40;;;;;;;5.22;78.29;97563.00;4960326;29;20368;-62
2020/12/11 09:35:14;;;;;;;9.77;6.47;;;;;;;5.46;75.70;97552.50;4911189;29;20067;-62
2020/12/11 09:37:39;;;;;;;9.03;6.17;;;;;;;5.57;74.45;97554.00;4919681;29;20457;-61
2020/12/11 09:40:04;;;;;;;8.07;6.50;;;;;;;5.27;74.60;97543.47;4959444;29;20158;-61
2020/12/11 09:45:22;;;;;;;11.10;7.73;;;;;;;5.38;75.88;97530.59;4922929;29;20080;-62
2020/12/11 09:48:00;;;;;;;9.17;6.77;;;;;;;5.67;75.33;97532.66;4920351;29;20517;-62
2020/12/11 09:50:51;;;;;;;12.40;7.30;;;;;;;5.95;73.96;97532.16;4931404;29;20070;-62
2020/12/11 09:55:56;;;;;;;10.03;7.73;;;;;;;6.20;73.89;97516.41;4960399;29;20042;-62
2020/12/11 09:58:21;;;;;;;12.57;7.57;;;;;;;6.36;73.40;97513.56;4957803;29;20035;-62
2020/12/11 10:00:48;;;;;;;9.53;6.97;;;;;;;6.42;72.21;97515.13;4953539;29;20024;-62
2020/12/11 10:03:18;;;;;;;8.83;6.33;;;;;;;6.55;72.84;97508.91;4937222;29;20051;-62
2020/12/11 10:05:43;;;;;;;7.10;5.73;;;;;;;6.42;70.50;97500.69;4939857;29;20059;-62
2020/12/11 10:08:08;;;;;;;8.43;5.67;;;;;;;6.68;69.03;97506.94;4938974;29;20127;-62
2020/12/11 10:10:34;;;;;;;8.73;5.80;;;;;;;6.69;67.83;97506.91;4939405;29;20036;-61
2020/12/11 10:13:00;;;;;;;7.27;5.73;;;;;;;6.13;69.58;97492.81;4937632;29;20414;-61
2020/12/11 10:15:26;;;;;;;6.27;4.93;;;;;;;6.39;68.68;97490.59;4947060;29;20039;-62
2020/12/11 10:17:51;;;;;;;7.87;5.27;;;;;;;6.39;68.90;97490.59;4937566;29;20629;-62
2020/12/11 10:20:18;;;;;;;6.70;5.13;;;;;;;6.06;69.38;97476.00;4938492;29;20028;-62
2020/12/11 10:22:49;;;;;;;6.13;4.87;;;;;;;5.90;69.83;97482.22;4936631;29;20045;-61
2020/12/11 10:25:18;;;;;;;6.90;5.23;;;;;;;6.09;70.07;97470.00;4955766;29;20038;-61
2020/12/11 10:27:44;;;;;;;6.53;5.00;;;;;;;6.21;69.05;97460.41;4956966;29;20027;-61
2020/12/11 10:30:10;;;;;;;6.10;5.30;;;;;;;6.37;69.75;97458.38;4941240;29;20038;-62
2020/12/11 10:32:35;;;;;;;6.33;4.90;;;;;;;6.42;68.65;97459.13;4934426;29;20470;-62
2020/12/11 10:35:01;;;;;;;5.50;4.80;;;;;;;6.33;68.80;97446.59;4928513;29;20099;-62
2020/12/11 10:37:26;;;;;;;6.00;4.27;;;;;;;6.12;69.26;97441.94;4927620;29;20445;-62
2020/12/11 10:39:52;;;;;;;5.20;4.70;;;;;;;6.16;70.17;97441.84;4932167;29;20092;-61
2020/12/11 10:42:17;;;;;;;5.60;5.00;;;;;;;6.17;70.06;97438.44;4924683;29;20067;-62
2020/12/11 10:44:43;;;;;;;5.30;4.80;;;;;;;6.31;68.74;97426.28;4918565;29;20084;-62
2020/12/11 10:47:08;;;;;;;5.43;4.67;;;;;;;6.56;68.58;97415.56;4930322;29;20023;-62
2020/12/11 10:49:34;;;;;;;5.97;5.00;;;;;;;7.22;66.28;97410.53;4925862;29;20106;-62
2020/12/11 10:52:00;;;;;;;6.70;4.67;;;;;;;7.13;65.17;97400.59;4936939;29;20031;-63
2020/12/11 10:54:28;;;;;;;5.10;4.50;;;;;;;7.06;64.00;97399.91;4929884;29;20055;-62
2020/12/11 10:56:55;;;;;;;4.17;3.50;;;;;;;6.59;66.73;97398.50;4936818;29;20114;-62
2020/12/11 10:59:21;;;;;;;4.87;4.23;;;;;;;6.41;66.58;97396.34;4925600;29;20331;-63
2020/12/11 11:01:48;;;;;;;5.37;4.87;;;;;;;6.40;68.04;97392.16;4928275;29;20038;-62
2020/12/11 11:04:14;;;;;;;5.20;4.70;;;;;;;6.18;68.15;97381.59;4920205;29;20043;-63
2020/12/11 11:06:45;;;;;;;4.47;4.07;;;;;;;6.37;67.82;97374.38;4928123;29;20043;-63
2020/12/11 11:12:01;;;;;;;4.63;3.57;;;;;;;6.31;67.38;97361.81;4936684;29;20564;-62
2020/12/11 11:15:39;;;;;;;;;;;;;;;6.52;67.99;97360.47;4941868;29;20360;-62
2020/12/11 11:27:53;;;;;;;6.27;4.97;;;;;;;6.75;68.25;97346.31;4937892;29;20402;-63
2020/12/11 11:30:21;;;;;;;6.63;5.10;;;;;;;6.74;67.47;97341.28;4931297;29;20024;-63
2020/12/11 11:32:46;;;;;;;4.80;3.93;;;;;;;6.74;68.48;97328.53;4917978;29;20501;-62
2020/12/11 11:35:12;;;;;;;4.13;3.73;;;;;;;6.60;68.66;97330.59;4918067;29;20115;-63
2020/12/11 11:37:37;;;;;;;5.77;4.60;;;;;;;6.73;68.04;97325.16;4918810;29;20061;-63
2020/12/11 11:40:03;;;;;;;5.50;3.90;;;;;;;6.70;67.58;97322.69;4924743;29;20095;-63
2020/12/11 11:42:28;;;;;;;5.10;4.20;;;;;;;6.67;67.37;97320.19;4926721;29;20452;-62
2020/12/11 11:44:58;;;;;;;5.03;4.30;;;;;;;6.56;68.29;97323.88;4921780;29;20036;-63
2020/12/11 11:47:24;;;;;;;5.80;4.20;;;;;;;6.57;68.38;97323.88;4924259;29;20061;-63
2020/12/11 11:50:10;;;;;;;5.47;4.30;;;;;;;6.38;69.41;97307.34;4936903;29;20035;-62
2020/12/11 11:55:03;;;;;;;5.97;4.53;;;;;;;6.62;68.15;97305.94;4951453;29;20031;-63
2020/12/11 11:57:29;;;;;;;4.50;3.30;;;;;;;6.82;67.72;97298.63;4955613;29;20356;-63
2020/12/11 11:59:54;;;;;;;5.00;3.70;;;;;;;6.75;67.26;97305.56;4939240;29;20115;-63